Time;durP1;ratioP1;P1;durP2;ratioP2;P2;SDS_P1;SDS_P2;PMS_P1;PMS_P2;Temp;Humidity;BMP_temperature;BMP_pressure;BME280_temperature;BME280_humidity;BME280_pressure;Samples;Min_cycle;Max_cycle;Signal;HPM_P1;HPM_P2
2021/03/23 00:01:55;;;;;;;5.43;2.28;;;;;;;5.31;100.00;100695.63;5005882;28;20053;-76
2021/03/23 00:04:59;;;;;;;10.88;2.92;;;;;;;5.31;100.00;100690.09;5007431;28;20077;-76
2021/03/23 00:08:07;;;;;;;9.43;3.00;;;;;;;5.31;100.00;100684.56;5006579;28;20053;-76
2021/03/23 00:11:31;;;;;;;5.70;2.58;;;;;;;5.31;100.00;100685.34;5006710;28;20069;-76
2021/03/23 00:14:35;;;;;;;9.45;2.58;;;;;;;5.30;100.00;100683.81;5006454;28;20065;-76
2021/03/23 00:17:39;;;;;;;9.43;2.80;;;;;;;5.31;100.00;100679.84;5008836;28;20530;-76
2021/03/23 00:20:43;;;;;;;3.60;1.88;;;;;;;5.34;100.00;100692.03;5011244;28;20073;-76
2021/03/23 00:23:46;;;;;;;12.32;2.50;;;;;;;5.35;100.00;100691.59;5011536;28;20069;-76
2021/03/23 00:26:50;;;;;;;14.85;1.27;;;;;;;5.37;100.00;100696.72;5010995;28;20245;-76
2021/03/23 00:29:54;;;;;;;3.35;1.90;;;;;;;5.41;100.00;100694.69;5010485;28;20065;-76
2021/03/23 00:32:57;;;;;;;7.07;2.10;;;;;;;5.41;100.00;100689.16;5011183;28;20057;-76
2021/03/23 00:36:02;;;;;;;11.57;4.03;;;;;;;5.44;100.00;100691.06;5010687;28;20531;-76
2021/03/23 00:39:08;;;;;;;14.98;5.07;;;;;;;5.46;100.00;100691.41;5010946;28;20143;-76
2021/03/23 00:42:12;;;;;;;5.88;2.10;;;;;;;5.47;100.00;100681.94;5009367;28;20057;-76
2021/03/23 00:45:17;;;;;;;24.95;3.42;;;;;;;5.48;100.00;100688.25;5010706;28;20523;-76
2021/03/23 00:48:21;;;;;;;5.90;1.85;;;;;;;5.50;100.00;100680.31;5009581;28;20061;-76
2021/03/23 00:51:24;;;;;;;4.55;2.10;;;;;;;5.50;100.00;100674.81;5010691;28;20061;-76
2021/03/23 00:54:28;;;;;;;3.88;2.35;;;;;;;5.49;100.00;100679.53;5010578;28;20061;-77
2021/03/23 00:57:31;;;;;;;21.27;3.13;;;;;;;5.50;100.00;100680.31;5010319;28;20073;-76
2021/03/23 01:00:35;;;;;;;7.57;2.38;;;;;;;5.49;100.00;100685.06;5009837;28;20065;-76
2021/03/23 01:03:39;;;;;;;6.13;1.90;;;;;;;5.47;100.00;100681.94;5012596;28;20069;-76
2021/03/23 01:06:42;;;;;;;9.38;1.88;;;;;;;5.48;100.00;100677.97;5012357;28;20065;-75
2021/03/23 01:09:46;;;;;;;2.13;1.17;;;;;;;5.48;100.00;100680.72;5012956;28;20061;-75
2021/03/23 01:12:49;;;;;;;4.90;2.67;;;;;;;5.48;100.00;100677.97;5012590;28;20428;-77
2021/03/23 01:15:52;;;;;;;3.30;1.67;;;;;;;5.47;100.00;100678.38;5012935;28;20530;-75
2021/03/23 01:18:56;;;;;;;3.40;1.63;;;;;;;5.46;100.00;100663.78;5013307;28;20137;-77
2021/03/23 01:22:00;;;;;;;11.20;2.55;;;;;;;5.46;100.00;100663.03;5012894;28;20060;-77
2021/03/23 01:25:06;;;;;;;5.18;1.27;;;;;;;5.44;100.00;100660.66;5013060;28;20069;-77
2021/03/23 01:28:09;;;;;;;5.72;2.50;;;;;;;5.44;100.00;100666.19;5012536;28;20056;-77
2021/03/23 01:31:14;;;;;;;7.75;2.78;;;;;;;5.44;100.00;100671.72;5034929;28;20527;-77
2021/03/23 01:34:17;;;;;;;5.03;3.45;;;;;;;5.46;100.00;100663.78;5013069;28;20057;-77
2021/03/23 01:37:21;;;;;;;2.03;1.70;;;;;;;5.46;100.00;100657.50;4990126;28;20065;-77
2021/03/23 01:40:27;;;;;;;5.68;2.10;;;;;;;5.46;100.00;100657.50;4990450;28;20165;-77
2021/03/23 01:43:32;;;;;;;4.55;2.03;;;;;;;5.46;100.00;100658.25;4990035;28;20058;-77
2021/03/23 01:46:43;;;;;;;4.00;2.42;;;;;;;5.45;100.00;100659.47;4989606;28;20069;-77
2021/03/23 01:49:47;;;;;;;7.17;2.23;;;;;;;5.47;100.00;100659.84;4989785;28;20057;-77
2021/03/23 01:53:00;;;;;;;6.25;2.47;;;;;;;5.50;100.00;100658.97;4989989;28;20424;-77
2021/03/23 01:56:08;;;;;;;11.73;3.20;;;;;;;5.51;100.00;100651.47;4989545;28;20061;-76
2021/03/23 01:59:13;;;;;;;9.00;2.40;;;;;;;5.52;100.00;100651.09;4989840;28;20081;-77
2021/03/23 02:02:18;;;;;;;4.25;1.83;;;;;;;5.56;100.00;100653.78;4989464;28;20069;-77
2021/03/23 02:05:28;;;;;;;2.92;1.40;;;;;;;5.58;100.00;100654.13;4988182;28;20065;-76
2021/03/23 02:08:32;;;;;;;3.92;1.63;;;;;;;5.58;100.00;100648.59;4989780;28;20130;-76
2021/03/23 02:11:42;;;;;;;6.03;2.75;;;;;;;5.58;100.00;100652.16;4989844;28;20436;-76
2021/03/23 02:14:47;;;;;;;7.93;2.30;;;;;;;5.59;100.00;100650.94;4989817;28;20416;-77
2021/03/23 02:18:14;;;;;;;6.15;1.88;;;;;;;5.58;100.00;100643.06;4989206;28;20061;-76
2021/03/23 02:21:20;;;;;;;1.90;1.15;;;;;;;5.59;100.00;100639.13;4988293;28;20069;-77
2021/03/23 02:24:23;;;;;;;5.00;0.93;;;;;;;5.62;100.00;100649.31;4989248;28;20421;-76
2021/03/23 02:27:28;;;;;;;3.60;2.08;;;;;;;5.62;100.00;100636.28;4988533;28;20058;-76
2021/03/23 02:30:34;;;;;;;4.28;1.15;;;;;;;5.64;100.00;100636.63;4989303;28;20551;-77
2021/03/23 02:33:38;;;;;;;4.90;1.92;;;;;;;5.61;100.00;100637.47;4987864;28;20073;-77
2021/03/23 02:36:44;;;;;;;1.40;0.95;;;;;;;5.61;100.00;100626.41;5005450;28;20064;-77
2021/03/23 02:39:47;;;;;;;2.25;0.80;;;;;;;5.59;100.00;100628.06;5008600;28;20070;-77
2021/03/23 02:42:51;;;;;;;0.60;0.60;;;;;;;5.56;100.00;100618.63;5007960;28;20654;-76
2021/03/23 02:45:56;;;;;;;3.60;1.17;;;;;;;5.55;100.00;100622.59;5008278;28;20061;-77
2021/03/23 02:49:00;;;;;;;2.40;1.02;;;;;;;5.51;100.00;100619.13;5007410;28;20061;-76
2021/03/23 02:52:04;;;;;;;2.65;1.27;;;;;;;5.51;100.00;100610.84;5008298;28;20057;-77
2021/03/23 02:55:09;;;;;;;6.32;0.80;;;;;;;5.49;100.00;100621.53;5008052;28;20065;-76
2021/03/23 02:58:14;;;;;;;1.25;1.00;;;;;;;5.48;100.00;100617.19;5008326;28;20076;-77
2021/03/23 03:01:18;;;;;;;3.45;1.10;;;;;;;5.45;100.00;100607.00;5007383;28;20057;-76
2021/03/23 03:04:22;;;;;;;4.95;1.08;;;;;;;5.43;100.00;100603.09;5009343;28;20060;-77
2021/03/23 03:07:25;;;;;;;5.80;1.55;;;;;;;5.43;100.00;100601.13;5009809;28;20057;-76
2021/03/23 03:10:29;;;;;;;3.28;0.98;;;;;;;5.43;100.00;100601.13;5010191;28;20566;-77
2021/03/23 03:13:34;;;;;;;1.27;0.85;;;;;;;5.44;100.00;100599.91;5010917;28;20523;-76
2021/03/23 03:16:37;;;;;;;2.00;1.30;;;;;;;5.45;100.00;100595.16;5010408;28;20060;-76
2021/03/23 03:19:41;;;;;;;1.10;0.57;;;;;;;5.42;100.00;100591.25;5010608;28;20114;-76
2021/03/23 03:22:44;;;;;;;0.82;0.82;;;;;;;5.42;100.00;100584.94;5010194;28;20408;-76
2021/03/23 03:25:49;;;;;;;8.50;1.27;;;;;;;5.40;100.00;100582.63;5010774;28;20527;-77
2021/03/23 03:28:52;;;;;;;0.95;0.95;;;;;;;5.40;100.00;100577.09;5010844;28;20523;-77
2021/03/23 03:31:56;;;;;;;2.33;1.35;;;;;;;5.39;100.00;100583.84;5010651;28;20065;-76
2021/03/23 03:34:59;;;;;;;6.10;1.15;;;;;;;5.37;100.00;100583.47;5010544;28;20061;-77
2021/03/23 03:38:04;;;;;;;0.77;0.35;;;;;;;5.36;100.00;100581.91;5010680;28;20064;-77
2021/03/23 03:41:08;;;;;;;3.80;1.90;;;;;;;5.34;100.00;100578.78;5010529;28;20069;-77
2021/03/23 03:44:11;;;;;;;1.42;1.25;;;;;;;5.33;100.00;100578.00;5010452;28;20420;-77
2021/03/23 03:47:15;;;;;;;2.33;1.50;;;;;;;5.34;100.00;100578.78;5010612;28;20077;-77
2021/03/23 03:50:20;;;;;;;1.52;1.25;;;;;;;5.33;100.00;100578.00;5009672;28;20404;-77
2021/03/23 03:53:23;;;;;;;2.05;1.05;;;;;;;5.34;100.00;100567.75;5009334;28;20547;-77
2021/03/23 03:56:26;;;;;;;1.63;1.10;;;;;;;5.32;100.00;100570.16;5010308;28;20424;-76
2021/03/23 03:59:30;;;;;;;1.33;0.60;;;;;;;5.34;100.00;100562.22;5010329;28;20534;-76
2021/03/23 04:02:33;;;;;;;11.77;0.82;;;;;;;5.33;100.00;100566.19;5010156;28;20077;-76
2021/03/23 04:05:39;;;;;;;0.70;0.70;;;;;;;5.32;100.00;100567.41;5010483;28;20177;-77
2021/03/23 04:08:43;;;;;;;4.30;0.90;;;;;;;5.32;100.00;100554.38;5010304;28;20070;-76
2021/03/23 04:11:46;;;;;;;0.63;0.55;;;;;;;5.32;100.00;100548.84;5010156;28;20073;-77
2021/03/23 04:14:49;;;;;;;1.10;0.57;;;;;;;5.32;100.00;100553.59;5010171;28;20077;-77
2021/03/23 04:17:53;;;;;;;2.05;0.70;;;;;;;5.29;100.00;100554.41;5009357;28;20061;-77
2021/03/23 04:20:59;;;;;;;3.67;1.15;;;;;;;5.26;100.00;100547.75;5009789;28;20057;-77
2021/03/23 04:24:03;;;;;;;0.38;0.38;;;;;;;5.23;100.00;100550.59;5010169;28;20060;-77
2021/03/23 04:27:07;;;;;;;1.05;0.38;;;;;;;5.21;100.00;100541.94;5010017;28;20084;-77
2021/03/23 04:30:11;;;;;;;1.52;0.50;;;;;;;5.18;100.00;100527.00;5010022;28;20069;-76
2021/03/23 04:33:17;;;;;;;0.20;0.20;;;;;;;5.19;100.00;100539.63;5010091;28;20424;-76
2021/03/23 04:36:20;;;;;;;0.38;0.38;;;;;;;5.21;100.00;100545.50;4998196;28;20058;-76
2021/03/23 04:39:24;;;;;;;1.27;0.73;;;;;;;5.23;100.00;100534.03;4990766;28;20066;-76
2021/03/23 04:42:28;;;;;;;0.93;0.60;;;;;;;5.22;100.00;100543.50;4990352;28;20123;-76
2021/03/23 04:45:31;;;;;;;2.28;0.43;;;;;;;5.17;100.00;100542.03;4990450;28;20062;-76
2021/03/23 04:48:35;;;;;;;0.20;0.20;;;;;;;5.15;100.00;100543.66;4990103;28;20053;-76
2021/03/23 04:51:38;;;;;;;2.38;0.82;;;;;;;5.13;100.00;100537.78;4990207;28;20396;-76
2021/03/23 04:54:42;;;;;;;4.57;0.85;;;;;;;5.12;100.00;100538.97;5005463;28;20069;-76
2021/03/23 04:57:45;;;;;;;1.83;0.80;;;;;;;5.13;100.00;100529.50;4989383;28;20062;-77
2021/03/23 05:00:49;;;;;;;3.78;1.42;;;;;;;5.11;100.00;100537.41;4990135;28;20069;-76
2021/03/23 05:04:02;;;;;;;3.50;1.67;;;;;;;5.09;100.00;100532.28;4992050;28;20069;-77
2021/03/23 05:07:06;;;;;;;1.38;0.45;;;;;;;5.09;100.00;100542.59;4993630;28;20061;-77
2021/03/23 05:10:11;;;;;;;1.27;0.80;;;;;;;5.07;100.00;100537.47;5000977;28;20065;-76
2021/03/23 05:13:15;;;;;;;0.70;0.70;;;;;;;5.06;100.00;100538.69;4993807;28;20061;-76
2021/03/23 05:16:19;;;;;;;1.00;1.00;;;;;;;5.05;100.00;100533.56;5009176;28;20531;-76
2021/03/23 05:19:22;;;;;;;1.88;1.05;;;;;;;5.04;100.00;100532.00;5013374;28;20061;-76
2021/03/23 05:22:26;;;;;;;1.27;1.00;;;;;;;5.01;100.00;100535.59;5012958;28;20475;-77
2021/03/23 05:25:30;;;;;;;0.43;0.43;;;;;;;5.01;100.00;100527.31;5013005;28;20069;-77
2021/03/23 05:28:34;;;;;;;1.05;0.63;;;;;;;4.98;100.00;100534.47;5013090;28;20060;-76
2021/03/23 05:31:38;;;;;;;1.30;0.70;;;;;;;4.99;100.00;100532.47;5012995;28;20076;-77
2021/03/23 05:34:41;;;;;;;12.70;1.10;;;;;;;4.98;100.00;100533.69;5013013;28;20423;-76
2021/03/23 05:37:45;;;;;;;0.73;0.60;;;;;;;4.97;100.00;100526.63;4993283;28;20081;-76
2021/03/23 05:40:55;;;;;;;0.60;0.60;;;;;;;4.99;100.00;100529.72;4992861;28;20073;-77
2021/03/23 05:44:02;;;;;;;0.73;0.73;;;;;;;4.98;100.00;100525.41;4993217;28;20061;-75
2021/03/23 05:47:10;;;;;;;7.53;1.05;;;;;;;4.99;100.00;100529.72;4993165;28;20065;-76
2021/03/23 05:50:24;;;;;;;0.95;0.70;;;;;;;5.01;100.00;100532.84;4992930;28;20058;-76
2021/03/23 05:53:37;;;;;;;3.78;0.88;;;;;;;5.01;100.00;100522.59;4991944;28;20069;-76
2021/03/23 05:56:44;;;;;;;3.88;1.02;;;;;;;5.01;100.00;100533.63;4992574;28;20539;-76
2021/03/23 05:59:54;;;;;;;8.75;1.63;;;;;;;5.03;100.00;100530.44;4991907;28;20065;-77
2021/03/23 06:03:19;;;;;;;0.60;0.60;;;;;;;5.08;100.00;100528.00;4992950;28;20528;-76
2021/03/23 06:06:35;;;;;;;1.00;1.00;;;;;;;5.08;100.00;100530.75;5013751;28;20065;-77
2021/03/23 06:09:40;;;;;;;1.17;0.60;;;;;;;5.10;100.00;100531.09;4992308;28;20061;-77
2021/03/23 06:13:02;;;;;;;0.80;0.80;;;;;;;5.11;100.00;100531.91;4992723;28;20413;-76
2021/03/23 06:16:21;;;;;;;1.13;1.13;;;;;;;5.15;100.00;100538.13;4992325;28;20412;-76
2021/03/23 06:19:40;;;;;;;0.65;0.65;;;;;;;5.17;100.00;100527.44;4991928;28;20061;-76
2021/03/23 06:23:13;;;;;;;3.00;1.15;;;;;;;5.18;100.00;100534.50;4992384;28;20540;-77
2021/03/23 06:26:54;;;;;;;4.40;2.03;;;;;;;5.20;100.00;100538.41;4991976;28;20543;-76
2021/03/23 06:30:16;;;;;;;8.57;2.40;;;;;;;5.20;100.00;100538.41;4990695;28;20420;-76
2021/03/23 06:33:22;;;;;;;6.22;2.65;;;;;;;5.21;100.00;100541.94;4991980;28;20081;-76
2021/03/23 06:36:30;;;;;;;35.30;5.35;;;;;;;5.19;100.00;100534.09;5006006;28;20061;-77
2021/03/23 06:39:33;;;;;;;12.02;4.43;;;;;;;5.18;100.00;100537.25;5011492;28;20057;-76
2021/03/23 06:42:47;;;;;;;9.77;3.42;;;;;;;5.17;100.00;100535.72;5011542;28;20133;-76
2021/03/23 06:46:02;;;;;;;16.80;2.95;;;;;;;5.17;100.00;100535.72;5010851;28;20081;-76
2021/03/23 06:49:12;;;;;;;23.58;3.72;;;;;;;5.18;100.00;100531.75;4991867;28;20069;-76
2021/03/23 06:52:22;;;;;;;14.20;4.72;;;;;;;5.19;100.00;100533.31;4991716;28;20056;-75
2021/03/23 06:55:26;;;;;;;12.55;5.05;;;;;;;5.22;100.00;100532.44;5007526;28;20109;-76
2021/03/23 06:58:33;;;;;;;24.67;5.68;;;;;;;5.26;100.00;100533.19;5010004;28;20061;-76
2021/03/23 07:01:48;;;;;;;16.20;4.82;;;;;;;5.27;100.00;100540.25;5011602;28;20061;-75
2021/03/23 07:04:52;;;;;;;15.77;3.60;;;;;;;5.31;100.00;100536.22;5011163;28;20064;-75
2021/03/23 07:08:07;;;;;;;14.27;1.95;;;;;;;5.33;100.00;100530.28;5010215;28;20061;-75
2021/03/23 07:11:11;;;;;;;9.30;3.15;;;;;;;5.37;100.00;100529.00;5010828;28;20119;-76
2021/03/23 07:14:29;;;;;;;6.30;2.30;;;;;;;5.41;100.00;100522.66;5011154;28;20130;-76
2021/03/23 07:17:33;;;;;;;11.18;2.90;;;;;;;5.45;100.00;100524.13;5009850;28;20069;-77
2021/03/23 07:20:44;;;;;;;6.25;2.50;;;;;;;5.50;100.00;100520.88;5010415;28;20060;-76
2021/03/23 07:24:32;;;;;;;12.00;2.88;;;;;;;5.56;100.00;100524.72;5010419;28;20060;-77
2021/03/23 07:27:35;;;;;;;10.02;2.60;;;;;;;5.63;100.00;100524.53;5009898;28;20531;-76
2021/03/23 07:30:41;;;;;;;9.15;3.13;;;;;;;5.68;100.00;100526.81;5010313;28;20125;-76
2021/03/23 07:33:45;;;;;;;5.10;1.13;;;;;;;5.73;100.00;100529.09;5010671;28;20076;-76
2021/03/23 07:37:03;;;;;;;2.42;1.23;;;;;;;5.79;100.00;100523.84;5010432;28;20061;-77
2021/03/23 07:40:36;;;;;;;2.47;1.77;;;;;;;5.82;100.00;100523.78;5010564;28;20526;-76
2021/03/23 07:44:16;;;;;;;4.32;2.20;;;;;;;5.90;100.00;100522.44;5009658;28;20061;-76
2021/03/23 07:47:40;;;;;;;10.20;2.50;;;;;;;5.93;100.00;100527.09;5010465;28;20068;-76
2021/03/23 07:50:46;;;;;;;3.65;1.17;;;;;;;5.98;100.00;100518.31;5010012;28;20061;-76
2021/03/23 07:53:50;;;;;;;4.18;2.20;;;;;;;6.04;100.00;100516.59;5009888;28;20064;-76
2021/03/23 07:57:03;;;;;;;2.05;1.35;;;;;;;6.11;100.00;100521.97;5009535;28;20073;-77
2021/03/23 08:00:22;;;;;;;2.28;1.60;;;;;;;6.21;100.00;100516.63;5010242;28;20061;-77
2021/03/23 08:03:34;;;;;;;2.35;1.40;;;;;;;6.24;100.00;100510.25;5009087;28;20076;-76
2021/03/23 08:06:59;;;;;;;3.38;1.33;;;;;;;6.32;100.00;100511.66;5010404;28;20057;-76
2021/03/23 08:10:07;;;;;;;11.52;0.95;;;;;;;6.38;100.00;100518.22;5009391;28;20057;-76
2021/03/23 08:13:26;;;;;;;1.30;0.57;;;;;;;6.42;100.00;100513.38;5010111;28;20057;-76
2021/03/23 08:16:44;;;;;;;3.28;0.82;;;;;;;6.46;100.00;100514.84;5010053;28;20069;-76
2021/03/23 08:19:48;;;;;;;7.78;1.27;;;;;;;6.49;100.00;100514.00;5010113;28;20145;-76
2021/03/23 08:23:09;;;;;;;2.45;0.93;;;;;;;6.60;100.00;100522.03;5009189;28;20424;-75
2021/03/23 08:26:23;;;;;;;1.02;0.35;;;;;;;6.71;100.00;100511.50;5009530;28;20069;-75
2021/03/23 08:29:40;;;;;;;2.83;1.08;;;;;;;6.80;100.00;100514.41;5009159;28;20416;-76
2021/03/23 08:33:02;;;;;;;2.55;0.70;;;;;;;6.87;100.00;100512.25;5010689;28;20085;-76
2021/03/23 08:36:41;;;;;;;5.28;1.23;;;;;;;6.94;100.00;100508.53;5009943;28;20108;-75
2021/03/23 08:40:03;;;;;;;3.15;1.25;;;;;;;7.03;100.00;100508.69;4992236;28;20428;-75
2021/03/23 08:43:14;;;;;;;3.50;1.90;;;;;;;7.14;100.00;100511.94;5025888;28;20060;-76
2021/03/23 08:46:23;;;;;;;1.00;0.57;;;;;;;7.22;100.00;100513.31;5031663;28;20064;-76
2021/03/23 08:49:27;;;;;;;2.78;0.85;;;;;;;7.27;100.00;100518.34;5013344;28;20065;-77
2021/03/23 08:52:30;;;;;;;1.17;0.68;;;;;;;7.33;100.00;100505.50;5013562;28;20068;-76
2021/03/23 08:55:34;;;;;;;0.55;0.55;;;;;;;7.38;100.00;100499.44;5013553;28;20520;-76
2021/03/23 08:58:42;;;;;;;5.00;0.77;;;;;;;7.42;100.00;100497.34;5013465;28;20114;-75
2021/03/23 09:01:45;;;;;;;0.43;0.43;;;;;;;7.48;100.00;100500.31;5013748;28;20065;-76
2021/03/23 09:04:59;;;;;;;2.08;1.10;;;;;;;7.55;100.00;100500.91;5013414;28;20057;-75
2021/03/23 09:08:32;;;;;;;2.55;0.70;;;;;;;7.67;100.00;100501.41;5013269;28;20065;-76
2021/03/23 09:11:38;;;;;;;2.63;0.50;;;;;;;7.75;100.00;100491.66;5012796;28;20057;-77
2021/03/23 09:15:15;;;;;;;0.70;0.70;;;;;;;7.82;100.00;100497.75;5013233;28;20085;-76
2021/03/23 09:18:20;;;;;;;0.65;0.32;;;;;;;7.93;100.00;100487.13;5013429;28;20134;-77
2021/03/23 09:21:24;;;;;;;2.72;0.90;;;;;;;8.04;100.00;100478.47;5013246;28;20065;-76
2021/03/23 09:24:27;;;;;;;0.57;0.35;;;;;;;8.13;100.00;100478.59;5013096;28;20065;-76
2021/03/23 09:27:31;;;;;;;1.15;0.70;;;;;;;8.22;100.00;100481.47;5013138;28;20061;-76
2021/03/23 09:30:39;;;;;;;2.28;0.80;;;;;;;8.28;100.00;100471.41;5013745;28;20056;-76
2021/03/23 09:33:49;;;;;;;4.70;1.20;;;;;;;8.38;100.00;100476.59;5012883;28;20064;-76
2021/03/23 09:36:53;;;;;;;0.50;0.50;;;;;;;8.43;100.00;100469.72;5004093;28;20069;-76
2021/03/23 09:39:57;;;;;;;1.35;0.32;;;;;;;8.44;100.00;100467.72;5000539;28;20077;-76
2021/03/23 09:43:03;;;;;;;2.30;0.77;;;;;;;8.47;100.00;100466.84;5001209;28;20054;-76
2021/03/23 09:46:41;;;;;;;1.08;0.60;;;;;;;8.49;100.00;100467.19;4998431;28;20116;-76
2021/03/23 09:49:49;;;;;;;0.73;0.40;;;;;;;8.51;100.00;100473.81;4998758;28;20057;-76
2021/03/23 09:53:42;;;;;;;0.80;0.40;;;;;;;8.50;100.00;100472.28;5000876;28;20058;-76
2021/03/23 09:56:48;;;;;;;2.47;0.73;;;;;;;8.47;100.00;100470.38;4999871;28;20054;-76
2021/03/23 09:59:56;;;;;;;2.35;1.27;;;;;;;8.50;100.00;100472.28;5000985;28;20069;-76
2021/03/23 10:03:00;;;;;;;1.98;1.05;;;;;;;8.51;100.00;100471.03;4999118;28;20076;-76
2021/03/23 10:06:13;;;;;;;3.67;1.17;;;;;;;8.43;100.00;100468.94;4998236;28;20061;-76
2021/03/23 10:09:33;;;;;;;0.95;0.70;;;;;;;8.36;100.00;100475.50;5000898;28;20057;-77
2021/03/23 10:12:37;;;;;;;1.95;0.82;;;;;;;8.26;100.00;100471.06;4992117;28;20389;-76
2021/03/23 10:15:43;;;;;;;3.20;1.88;;;;;;;8.23;100.00;100466.38;4993224;28;20077;-76
2021/03/23 10:18:47;;;;;;;2.53;1.65;;;;;;;8.30;100.00;100474.50;4999837;28;20578;-77
2021/03/23 10:21:53;;;;;;;1.55;0.68;;;;;;;8.32;100.00;100458.97;4998574;28;20061;-76
2021/03/23 10:24:59;;;;;;;4.13;1.80;;;;;;;8.35;100.00;100469.19;5000567;28;20073;-77
2021/03/23 10:28:05;;;;;;;6.07;1.63;;;;;;;8.40;100.00;100465.09;4997168;28;20536;-77
2021/03/23 10:31:11;;;;;;;2.63;1.55;;;;;;;8.45;100.00;100458.94;4996585;28;20057;-75
2021/03/23 10:34:19;;;;;;;5.50;1.55;;;;;;;8.51;100.00;100459.94;4996065;28;20061;-75
2021/03/23 10:37:23;;;;;;;1.42;0.52;;;;;;;8.55;100.00;100457.06;4980443;28;20405;-76
2021/03/23 10:40:37;;;;;;;4.53;1.50;;;;;;;8.64;100.00;100457.91;4972978;28;20078;-76
2021/03/23 10:43:41;;;;;;;1.33;0.73;;;;;;;8.66;100.00;100466.59;4972289;28;20469;-75
2021/03/23 10:46:46;;;;;;;3.83;1.20;;;;;;;8.71;100.00;100457.69;4976823;28;20118;-77
2021/03/23 10:49:49;;;;;;;3.97;1.60;;;;;;;8.73;100.00;100451.66;4980336;28;20062;-76
2021/03/23 10:53:27;;;;;;;3.65;1.33;;;;;;;8.81;100.00;100451.00;4980634;28;20070;-75
2021/03/23 10:56:33;;;;;;;2.33;1.33;;;;;;;8.82;100.00;100447.00;4971514;28;20081;-76
2021/03/23 10:59:37;;;;;;;3.80;1.85;;;;;;;8.81;100.00;100441.91;4972334;28;20445;-76
2021/03/23 11:02:41;;;;;;;3.20;1.35;;;;;;;8.87;100.00;100432.53;4972613;28;20066;-76
2021/03/23 11:05:47;;;;;;;4.05;1.80;;;;;;;8.91;100.00;100433.19;4983752;28;20425;-76
2021/03/23 11:08:50;;;;;;;6.80;2.13;;;;;;;9.09;100.00;100430.56;4979907;28;20520;-76
2021/03/23 11:11:54;;;;;;;14.15;3.17;;;;;;;9.24;100.00;100428.03;4980071;28;20101;-76
2021/03/23 11:14:59;;;;;;;9.73;2.85;;;;;;;9.34;100.00;100421.31;4979932;28;20417;-76
2021/03/23 11:18:05;;;;;;;5.05;1.90;;;;;;;9.43;100.00;100423.38;4972412;28;20058;-76
2021/03/23 11:21:12;;;;;;;4.93;2.03;;;;;;;9.56;100.00;100418.50;4971673;28;20066;-76
2021/03/23 11:24:16;;;;;;;2.97;1.33;;;;;;;9.64;100.00;100412.22;4971834;28;20051;-76
2021/03/23 11:27:21;;;;;;;8.55;3.13;;;;;;;9.62;100.00;100416.69;4987203;28;20057;-77
2021/03/23 11:30:25;;;;;;;3.97;2.20;;;;;;;9.61;100.00;100406.81;4972332;28;20070;-76
2021/03/23 11:33:30;;;;;;;3.53;1.30;;;;;;;9.62;100.00;100413.91;4971223;28;20058;-77
2021/03/23 11:36:33;;;;;;;3.92;1.90;;;;;;;9.63;100.00;100409.91;4986097;28;20065;-75
2021/03/23 11:39:37;;;;;;;3.65;1.65;;;;;;;9.73;100.00;100420.63;4991266;28;20078;-77
2021/03/23 11:42:47;;;;;;;6.82;2.30;;;;;;;9.76;100.00;100413.38;4990345;28;20065;-77
2021/03/23 11:45:53;;;;;;;7.28;2.05;;;;;;;9.74;100.00;100410.28;4991504;28;20065;-76
2021/03/23 11:49:08;;;;;;;5.43;2.20;;;;;;;9.75;100.00;100412.59;4990532;28;20524;-76
2021/03/23 11:52:12;;;;;;;4.28;1.42;;;;;;;9.78;100.00;100416.47;4990953;28;20058;-76
2021/03/23 11:55:21;;;;;;;14.05;1.75;;;;;;;9.82;100.00;100411.53;4990205;28;20057;-76
2021/03/23 11:58:25;;;;;;;3.25;1.98;;;;;;;9.81;100.00;100410.00;4990431;28;20077;-76
2021/03/23 12:01:29;;;;;;;8.35;2.13;;;;;;;9.99;100.00;100398.94;4991373;28;20061;-76
2021/03/23 12:04:33;;;;;;;14.18;3.90;;;;;;;10.33;100.00;100384.84;4990680;28;20065;-76
2021/03/23 12:07:52;;;;;;;4.78;2.47;;;;;;;10.61;100.00;100391.25;4990692;28;20054;-76
2021/03/23 12:11:14;;;;;;;10.68;3.50;;;;;;;10.73;100.00;100384.75;4989540;28;20057;-76
2021/03/23 12:14:28;;;;;;;18.02;3.65;;;;;;;10.83;100.00;100388.31;4989641;28;20050;-77
2021/03/23 12:17:36;;;;;;;5.60;2.67;;;;;;;10.84;100.00;100382.25;4991097;28;20062;-76
2021/03/23 12:20:39;;;;;;;8.57;2.58;;;;;;;10.91;100.00;100383.97;4990475;28;20065;-77
2021/03/23 12:23:43;;;;;;;3.70;1.45;;;;;;;11.02;100.00;100368.31;4990187;28;20065;-77
2021/03/23 12:26:47;;;;;;;7.45;2.72;;;;;;;11.01;100.00;100382.72;4990514;28;20073;-77
2021/03/23 12:29:50;;;;;;;3.60;2.08;;;;;;;11.03;100.00;100380.22;4990301;28;20077;-76
2021/03/23 12:32:55;;;;;;;4.95;2.15;;;;;;;11.06;100.00;100368.94;4991093;28;20412;-77
2021/03/23 12:35:59;;;;;;;6.78;1.83;;;;;;;10.93;100.00;100373.13;4990506;28;20069;-76
2021/03/23 12:39:03;;;;;;;1.55;0.98;;;;;;;10.81;100.00;100369.25;4990416;28;20054;-77
2021/03/23 12:42:08;;;;;;;5.85;2.75;;;;;;;10.77;100.00;100363.06;4990229;28;20532;-77
2021/03/23 12:45:22;;;;;;;6.47;2.92;;;;;;;10.81;100.00;100363.69;4990511;28;20424;-75
2021/03/23 12:48:25;;;;;;;3.42;1.33;;;;;;;10.85;100.00;100352.41;4990416;28;20081;-77
2021/03/23 12:51:41;;;;;;;4.80;1.60;;;;;;;10.82;100.00;100348.53;4990560;28;20058;-76
2021/03/23 12:54:55;;;;;;;2.85;1.55;;;;;;;10.88;100.00;100343.09;4998417;28;20066;-77
2021/03/23 12:58:02;;;;;;;5.68;1.65;;;;;;;10.78;100.00;100347.13;4998117;28;20528;-77
2021/03/23 13:01:06;;;;;;;2.47;1.60;;;;;;;10.87;100.00;100341.56;4990900;28;20061;-77
2021/03/23 13:04:11;;;;;;;6.70;2.72;;;;;;;11.08;100.00;100332.22;4990027;28;20424;-77
2021/03/23 13:07:23;;;;;;;4.90;2.40;;;;;;;11.21;100.00;100324.47;4990079;28;20523;-76
2021/03/23 13:10:34;;;;;;;7.25;2.53;;;;;;;11.39;100.00;100313.28;4997574;28;20065;-77
2021/03/23 13:13:49;;;;;;;7.97;3.88;;;;;;;11.44;100.00;100316.19;4990268;28;20069;-76
2021/03/23 13:16:53;;;;;;;15.02;4.78;;;;;;;11.60;100.00;100314.25;4995543;28;20060;-77
2021/03/23 13:19:57;;;;;;;9.73;3.22;;;;;;;11.84;100.00;100315.13;4998309;28;20050;-77
2021/03/23 13:23:04;;;;;;;9.75;3.42;;;;;;;11.94;100.00;100303.44;4998116;28;20069;-78
2021/03/23 13:26:08;;;;;;;5.88;2.53;;;;;;;11.98;100.00;100309.59;5001424;28;20065;-77
2021/03/23 13:29:11;;;;;;;3.03;1.75;;;;;;;11.94;100.00;100292.25;4993483;28;20421;-77
2021/03/23 13:32:16;;;;;;;10.25;2.65;;;;;;;11.84;100.00;100303.94;4994025;28;20069;-78
2021/03/23 13:35:20;;;;;;;6.75;2.33;;;;;;;11.82;100.00;100296.06;4992918;28;20054;-78
2021/03/23 13:38:28;;;;;;;4.47;1.67;;;;;;;11.86;100.00;100307.03;4993486;28;20516;-78
2021/03/23 13:41:33;;;;;;;9.45;2.20;;;;;;;11.98;100.00;100281.69;4993114;28;20520;-78
2021/03/23 13:44:48;;;;;;;7.20;2.05;;;;;;;12.06;100.00;100287.69;4993375;28;20436;-78
2021/03/23 13:47:52;;;;;;;11.07;1.67;;;;;;;12.21;100.00;100282.16;4993749;28;20069;-77
2021/03/23 13:51:01;;;;;;;6.55;2.58;;;;;;;12.08;100.00;100274.78;4990995;28;20501;-78
2021/03/23 13:54:05;;;;;;;3.25;2.35;;;;;;;12.01;100.00;100274.38;4992887;28;20531;-78
2021/03/23 13:57:10;;;;;;;4.43;1.58;;;;;;;11.86;100.00;100274.34;5007473;28;20451;-77
2021/03/23 14:00:20;;;;;;;5.03;1.98;;;;;;;11.72;100.00;100269.44;5012339;28;20412;-77
2021/03/23 14:03:23;;;;;;;6.07;1.23;;;;;;;11.52;100.00;100266.41;5012475;28;20061;-78
2021/03/23 14:06:27;;;;;;;1.27;0.77;;;;;;;11.35;100.00;100268.03;5012370;28;20065;-78
2021/03/23 14:09:41;;;;;;;10.00;1.30;;;;;;;11.14;100.00;100263.47;5012150;28;20060;-78
2021/03/23 14:12:45;;;;;;;3.17;1.45;;;;;;;10.93;100.00;100259.66;5012345;28;20058;-77
2021/03/23 14:15:49;;;;;;;3.83;1.27;;;;;;;10.89;100.00;100252.69;5012516;28;20108;-77
2021/03/23 14:18:53;;;;;;;6.60;1.50;;;;;;;10.93;100.00;100258.88;5012072;28;20113;-77
2021/03/23 14:21:56;;;;;;;2.95;1.42;;;;;;;11.04;100.00;100256.38;5010678;28;20073;-77
2021/03/23 14:25:30;;;;;;;2.47;1.42;;;;;;;11.21;100.00;100249.19;5010882;28;20053;-76
2021/03/23 14:28:39;;;;;;;10.20;2.80;;;;;;;11.34;100.00;100255.34;5010681;28;20531;-81
2021/03/23 14:31:42;;;;;;;8.48;2.33;;;;;;;11.41;100.00;100249.44;5012594;28;20057;-77